Time;durP1;ratioP1;P1;durP2;ratioP2;P2;SDS_P1;SDS_P2;PMS_P1;PMS_P2;Temp;Humidity;BMP_temperature;BMP_pressure;BME280_temperature;BME280_humidity;BME280_pressure;Samples;Min_cycle;Max_cycle;Signal;HPM_P1;HPM_P2
2022/05/24 00:00:23;;;;;;;6.47;4.67;;;16.10;99.90;;;;;;5046177;28;20207;-49
2022/05/24 00:02:50;;;;;;;5.43;5.03;;;16.00;99.90;;;;;;5055852;28;20193;-54
2022/05/24 00:05:18;;;;;;;7.10;5.73;;;16.00;99.90;;;;;;5055740;28;20217;-53
2022/05/24 00:07:45;;;;;;;5.90;5.40;;;16.00;99.90;;;;;;5045423;28;20219;-53
2022/05/24 00:10:16;;;;;;;6.57;5.37;;;16.00;99.90;;;;;;5052065;28;20207;-55
2022/05/24 00:12:43;;;;;;;5.20;4.80;;;16.10;99.90;;;;;;5057446;28;20191;-51
2022/05/24 00:15:28;;;;;;;7.17;5.50;;;16.10;99.90;;;;;;5045680;28;20218;-54
2022/05/24 00:17:57;;;;;;;9.77;5.50;;;16.10;99.90;;;;;;5049059;28;20245;-50
2022/05/24 00:20:28;;;;;;;5.37;4.90;;;16.10;99.90;;;;;;5056757;28;20199;-49
2022/05/24 00:22:55;;;;;;;5.93;5.53;;;16.10;99.90;;;;;;5037244;28;20203;-49
2022/05/24 00:25:23;;;;;;;4.80;4.40;;;16.20;99.90;;;;;;5053441;28;20199;-45
2022/05/24 00:27:50;;;;;;;5.90;5.30;;;16.10;99.90;;;;;;5057027;28;20218;-45
2022/05/24 00:30:18;;;;;;;5.77;5.23;;;16.10;99.90;;;;;;5045171;28;20206;-46
2022/05/24 00:32:45;;;;;;;5.93;5.43;;;16.00;99.90;;;;;;5051625;28;20248;-45
2022/05/24 00:35:14;;;;;;;5.90;5.30;;;16.00;99.90;;;;;;5047173;28;20203;-49
2022/05/24 00:37:43;;;;;;;9.57;5.13;;;16.00;99.90;;;;;;5043521;28;20284;-46
2022/05/24 00:40:14;;;;;;;5.70;5.07;;;16.10;99.90;;;;;;5048742;28;20199;-47
2022/05/24 00:42:44;;;;;;;6.73;5.33;;;16.00;99.90;;;;;;5052889;28;20207;-47
2022/05/24 00:45:16;;;;;;;6.17;5.63;;;16.00;99.90;;;;;;5052150;28;20195;-50
2022/05/24 00:47:51;;;;;;;6.40;5.90;;;16.10;99.90;;;;;;5048989;28;20215;-47
2022/05/24 00:50:22;;;;;;;5.63;5.17;;;16.10;99.90;;;;;;5044300;28;20567;-47
2022/05/24 00:52:55;;;;;;;6.50;6.00;;;16.10;99.90;;;;;;5056259;28;20713;-46
2022/05/24 00:55:22;;;;;;;5.83;5.43;;;16.10;99.90;;;;;;5049967;28;20214;-48
2022/05/24 00:57:58;;;;;;;6.77;6.10;;;16.00;99.90;;;;;;5053158;28;20234;-49
2022/05/24 01:00:26;;;;;;;7.77;6.03;;;16.00;99.90;;;;;;5044024;28;20199;-59
2022/05/24 01:02:53;;;;;;;6.73;6.07;;;15.90;99.90;;;;;;5045572;28;20264;-58
2022/05/24 01:05:23;;;;;;;6.93;6.27;;;16.00;99.90;;;;;;5054878;28;20202;-58
2022/05/24 01:07:50;;;;;;;7.20;6.43;;;15.90;99.90;;;;;;5060561;28;20210;-57
2022/05/24 01:10:21;;;;;;;7.73;6.47;;;15.90;99.90;;;;;;5037231;28;20215;-58
2022/05/24 01:12:54;;;;;;;7.57;6.77;;;15.90;99.90;;;;;;5046454;28;20203;-58
2022/05/24 01:15:21;;;;;;;8.23;6.50;;;15.90;99.90;;;;;;5046336;28;20204;-55
2022/05/24 01:17:50;;;;;;;7.77;7.07;;;15.90;99.90;;;;;;5045012;28;20222;-56
2022/05/24 01:20:17;;;;;;;7.47;6.90;;;15.90;99.90;;;;;;5046858;28;20203;-59
2022/05/24 01:23:13;;;;;;;7.67;6.57;;;16.00;99.90;;;;;;5049336;28;20667;-55
2022/05/24 01:25:52;;;;;;;7.13;6.57;;;16.00;99.90;;;;;;5033529;28;20265;-57
2022/05/24 01:28:26;;;;;;;7.70;6.90;;;16.00;99.90;;;;;;5051531;28;20227;-58
2022/05/24 01:30:54;;;;;;;8.00;7.20;;;16.00;99.90;;;;;;5050962;28;20195;-58
2022/05/24 01:36:10;;;;;;;7.53;6.80;;;16.00;99.90;;;;;;5053711;28;20305;-56
2022/05/24 01:38:40;;;;;;;8.87;7.57;;;16.00;99.90;;;;;;5051714;28;20206;-53
2022/05/24 01:41:09;;;;;;;8.60;7.80;;;16.10;99.90;;;;;;5037149;28;20290;-54
2022/05/24 01:43:40;;;;;;;7.73;6.97;;;16.10;99.90;;;;;;5049031;28;20202;-53
2022/05/24 01:46:11;;;;;;;7.87;7.17;;;16.10;99.90;;;;;;5052814;28;20195;-55
2022/05/24 01:48:42;;;;;;;8.53;7.83;;;16.10;99.90;;;;;;5052862;28;20331;-55
2022/05/24 01:51:11;;;;;;;10.23;8.47;;;16.10;99.90;;;;;;5050942;28;20203;-55
2022/05/24 01:53:42;;;;;;;9.57;8.63;;;16.10;99.90;;;;;;5045404;28;20198;-56
2022/05/24 01:56:13;;;;;;;9.83;9.03;;;16.10;99.90;;;;;;5047222;28;20297;-60
2022/05/24 01:58:45;;;;;;;10.20;9.20;;;16.10;99.90;;;;;;5060908;28;20272;-59
2022/05/24 02:01:22;;;;;;;10.87;9.87;;;16.10;99.90;;;;;;5046678;28;20242;-60
2022/05/24 02:03:49;;;;;;;9.13;7.77;;;16.10;99.90;;;;;;5061460;28;20183;-59
2022/05/24 02:06:23;;;;;;;8.90;7.00;;;16.00;99.90;;;;;;5039022;28;20253;-51
2022/05/24 02:08:50;;;;;;;6.50;6.10;;;16.00;99.90;;;;;;5056306;28;21016;-52
2022/05/24 02:11:27;;;;;;;7.20;6.53;;;15.90;99.90;;;;;;5040147;28;20401;-55
2022/05/24 02:14:01;;;;;;;4.63;3.97;;;15.90;99.90;;;;;;5059177;28;20198;-53
2022/05/24 02:16:32;;;;;;;5.07;4.00;;;15.80;99.90;;;;;;5047814;28;20306;-53
2022/05/24 02:19:02;;;;;;;4.20;3.90;;;15.60;99.90;;;;;;5053136;28;20202;-47
2022/05/24 02:21:29;;;;;;;5.90;3.67;;;15.60;99.90;;;;;;5052353;28;20191;-56
2022/05/24 02:23:56;;;;;;;6.30;4.07;;;15.50;99.90;;;;;;5052024;28;20196;-54
2022/05/24 02:26:24;;;;;;;4.37;4.07;;;15.40;99.90;;;;;;5037353;28;20217;-52
2022/05/24 02:28:52;;;;;;;6.00;4.43;;;15.40;99.90;;;;;;5056647;28;20276;-51
2022/05/24 02:31:24;;;;;;;4.57;4.17;;;15.30;99.90;;;;;;5047535;28;20248;-53
2022/05/24 02:33:51;;;;;;;4.90;4.30;;;15.30;99.90;;;;;;5050213;28;20203;-54
2022/05/24 02:36:18;;;;;;;6.00;5.50;;;15.20;99.90;;;;;;5046889;28;20269;-59
2022/05/24 02:38:46;;;;;;;5.97;5.37;;;15.10;99.90;;;;;;5050639;28;20211;-49
2022/05/24 02:41:31;;;;;;;5.90;5.40;;;15.10;99.90;;;;;;5050725;28;20214;-51
2022/05/24 02:44:00;;;;;;;5.90;5.40;;;15.10;99.90;;;;;;5049379;28;20202;-48
2022/05/24 02:46:31;;;;;;;6.43;5.83;;;15.10;99.90;;;;;;5053014;28;20350;-50
2022/05/24 02:48:58;;;;;;;9.13;6.50;;;15.10;99.90;;;;;;5044299;28;20210;-57
2022/05/24 02:51:26;;;;;;;7.67;6.37;;;15.10;99.90;;;;;;5046729;28;20202;-57
2022/05/24 02:53:54;;;;;;;7.13;6.50;;;15.10;99.90;;;;;;5058077;28;20186;-54
2022/05/24 02:56:21;;;;;;;8.43;6.47;;;15.00;99.90;;;;;;5041356;28;20699;-51
2022/05/24 02:58:48;;;;;;;9.70;7.20;;;15.00;99.90;;;;;;5041960;28;20230;-53
2022/05/24 03:01:19;;;;;;;9.37;8.47;;;15.00;99.90;;;;;;5042538;28;20203;-54
2022/05/24 03:03:49;;;;;;;8.93;8.03;;;15.00;99.90;;;;;;5050634;28;20277;-50
2022/05/24 03:06:16;;;;;;;9.63;8.70;;;15.00;99.90;;;;;;5048953;28;20209;-53
2022/05/24 03:11:27;;;;;;;10.50;8.40;;;15.00;99.90;;;;;;5049091;28;20186;-47
2022/05/24 03:16:39;;;;;;;9.87;8.97;;;15.00;99.90;;;;;;5052281;28;20210;-47
2022/05/24 03:19:07;;;;;;;10.63;9.53;;;15.00;99.90;;;;;;5046928;28;20201;-51
2022/05/24 03:21:34;;;;;;;10.53;9.43;;;15.00;99.90;;;;;;5049599;28;20198;-46
2022/05/24 03:24:01;;;;;;;11.37;10.23;;;14.90;99.90;;;;;;5045166;28;20730;-49
2022/05/24 03:26:28;;;;;;;14.30;10.67;;;14.90;99.90;;;;;;5047881;28;20203;-48
2022/05/24 03:28:59;;;;;;;12.03;10.47;;;14.90;99.90;;;;;;5042393;28;20206;-49
2022/05/24 03:31:26;;;;;;;12.83;11.00;;;14.90;99.90;;;;;;5049196;28;20198;-53
2022/05/24 03:33:54;;;;;;;12.83;11.40;;;15.00;99.90;;;;;;5058811;28;20218;-51
2022/05/24 03:36:23;;;;;;;13.57;11.53;;;14.90;99.90;;;;;;5046202;28;20207;-48
2022/05/24 03:38:49;;;;;;;11.73;10.50;;;14.90;99.90;;;;;;5050832;28;20284;-52
2022/05/24 03:41:16;;;;;;;13.40;11.17;;;14.80;99.90;;;;;;5048583;28;20200;-47
2022/05/24 03:43:43;;;;;;;12.13;10.93;;;14.80;99.90;;;;;;5050689;28;20202;-48
2022/05/24 03:46:11;;;;;;;13.73;11.17;;;14.80;99.90;;;;;;5050958;28;20195;-52
2022/05/24 03:48:38;;;;;;;13.13;11.87;;;14.80;99.90;;;;;;5056138;28;20206;-49
2022/05/24 03:51:05;;;;;;;13.63;11.37;;;14.80;99.90;;;;;;5051491;28;20195;-50
2022/05/24 03:53:34;;;;;;;12.40;10.60;;;14.80;99.90;;;;;;5052108;28;20278;-49
2022/05/24 03:56:00;;;;;;;11.57;10.37;;;14.70;99.90;;;;;;5049296;28;20207;-52
2022/05/24 03:58:28;;;;;;;11.33;10.10;;;14.70;99.90;;;;;;5056599;28;20222;-55
2022/05/24 04:00:56;;;;;;;12.43;10.63;;;14.70;99.90;;;;;;5057041;28;20210;-53
2022/05/24 04:03:23;;;;;;;11.53;10.43;;;14.70;99.90;;;;;;5054894;28;20864;-48
2022/05/24 04:05:50;;;;;;;12.13;10.07;;;14.70;99.90;;;;;;5048120;28;20674;-47
2022/05/24 04:08:19;;;;;;;11.13;9.63;;;14.70;99.90;;;;;;5046744;28;20551;-51
2022/05/24 04:11:11;;;;;;;12.27;10.47;;;14.70;99.90;;;;;;5042990;28;20211;-54
2022/05/24 04:13:40;;;;;;;11.67;10.27;;;14.70;99.90;;;;;;5051491;28;20194;-51
2022/05/24 04:16:09;;;;;;;12.90;9.97;;;14.70;99.90;;;;;;5041397;28;20206;-51
2022/05/24 04:18:36;;;;;;;11.07;9.00;;;14.70;99.90;;;;;;5047580;28;20215;-49
2022/05/24 04:21:03;;;;;;;13.10;10.20;;;14.70;99.90;;;;;;5054897;28;20878;-51
2022/05/24 04:23:30;;;;;;;13.23;9.73;;;14.80;99.90;;;;;;5058438;28;20224;-47
2022/05/24 04:25:57;;;;;;;10.97;8.63;;;14.70;99.90;;;;;;5048696;28;20199;-49
2022/05/24 04:28:25;;;;;;;11.07;9.80;;;14.70;99.90;;;;;;5049545;28;20207;-52
2022/05/24 04:30:52;;;;;;;9.80;8.83;;;14.70;99.90;;;;;;5043934;28;20202;-51
2022/05/24 04:33:20;;;;;;;10.13;9.07;;;14.70;99.90;;;;;;5050622;28;20219;-56
2022/05/24 04:35:50;;;;;;;9.20;8.20;;;14.80;99.90;;;;;;5057520;28;20695;-56
2022/05/24 04:38:17;;;;;;;10.27;7.83;;;14.80;99.90;;;;;;5052044;28;20230;-58
2022/05/24 04:43:30;;;;;;;8.17;7.37;;;14.80;99.90;;;;;;5051555;28;20247;-55
2022/05/24 04:45:57;;;;;;;11.20;7.13;;;14.70;99.90;;;;;;5048905;28;20184;-55
2022/05/24 04:48:25;;;;;;;9.83;7.20;;;14.70;99.90;;;;;;5042251;28;20219;-57
2022/05/24 04:50:53;;;;;;;8.90;7.23;;;14.70;99.90;;;;;;5053458;28;20202;-55
2022/05/24 04:53:21;;;;;;;11.27;6.50;;;14.70;99.90;;;;;;5048775;28;20620;-52
2022/05/24 04:55:49;;;;;;;8.40;7.10;;;14.80;99.90;;;;;;5055909;28;20285;-57
2022/05/24 04:58:15;;;;;;;6.80;6.10;;;14.80;99.90;;;;;;5045429;28;20234;-57
2022/05/24 05:00:44;;;;;;;7.30;6.60;;;14.70;99.90;;;;;;5059991;28;20190;-53
2022/05/24 05:03:13;;;;;;;6.80;6.20;;;14.70;99.90;;;;;;5036340;28;20211;-53
2022/05/24 05:05:43;;;;;;;7.27;4.97;;;14.70;99.90;;;;;;5054195;28;20194;-54
2022/05/24 05:08:10;;;;;;;9.27;5.43;;;14.70;99.90;;;;;;5047160;28;20226;-58
2022/05/24 05:10:38;;;;;;;8.73;5.60;;;14.70;99.90;;;;;;5054036;28;20202;-54
2022/05/24 05:13:06;;;;;;;5.70;4.60;;;14.70;99.90;;;;;;5046512;28;20221;-56
2022/05/24 05:15:34;;;;;;;7.63;5.60;;;14.60;99.90;;;;;;5050282;28;20194;-61
2022/05/24 05:18:04;;;;;;;6.23;4.77;;;14.60;99.90;;;;;;5046316;28;20230;-44
2022/05/24 05:20:32;;;;;;;7.77;4.60;;;14.60;99.90;;;;;;5055041;28;20205;-43
2022/05/24 05:22:59;;;;;;;5.53;4.17;;;14.60;99.90;;;;;;5042360;28;20758;-46
2022/05/24 05:25:26;;;;;;;4.47;4.07;;;14.60;99.90;;;;;;5044823;28;20203;-44
2022/05/24 05:27:53;;;;;;;5.27;4.00;;;14.60;99.90;;;;;;5047108;28;20566;-43
2022/05/24 05:33:06;;;;;;;5.60;3.60;;;14.60;99.90;;;;;;5042075;28;20206;-47
2022/05/24 05:35:33;;;;;;;4.07;3.47;;;14.60;99.90;;;;;;5053248;28;20260;-46
2022/05/24 05:38:00;;;;;;;4.77;3.20;;;14.60;99.90;;;;;;5057076;28;20226;-45
2022/05/24 05:40:26;;;;;;;5.93;3.93;;;14.70;99.90;;;;;;5047691;28;20198;-43
2022/05/24 05:42:53;;;;;;;5.73;3.70;;;14.70;99.90;;;;;;5053583;28;20637;-43
2022/05/24 05:45:21;;;;;;;5.30;2.67;;;14.80;99.90;;;;;;5049642;28;20992;-42
2022/05/24 05:47:48;;;;;;;5.17;3.47;;;14.90;99.90;;;;;;5043481;28;20211;-44
2022/05/24 05:50:17;;;;;;;5.37;3.60;;;14.90;99.90;;;;;;5044053;28;20191;-45
2022/05/24 05:52:45;;;;;;;6.03;3.47;;;15.00;99.90;;;;;;5053831;28;20249;-43
2022/05/24 05:55:12;;;;;;;4.57;3.53;;;15.10;99.90;;;;;;5051997;28;20207;-43
2022/05/24 05:57:39;;;;;;;6.30;3.53;;;15.10;99.90;;;;;;5049203;28;20218;-45
2022/05/24 06:00:08;;;;;;;3.80;3.40;;;15.20;99.90;;;;;;5045454;28;20203;-46
2022/05/24 06:02:44;;;;;;;3.63;2.80;;;15.20;99.90;;;;;;5048584;28;20199;-44
2022/05/24 06:05:11;;;;;;;9.13;4.17;;;15.20;99.90;;;;;;5035171;28;20211;-44
2022/05/24 06:07:39;;;;;;;4.17;3.87;;;15.20;99.90;;;;;;5046179;28;20205;-44
2022/05/24 06:10:09;;;;;;;3.87;3.57;;;15.20;99.90;;;;;;5047998;28;20734;-45
2022/05/24 06:12:35;;;;;;;3.80;3.50;;;15.20;99.90;;;;;;5042328;28;20204;-45
2022/05/24 06:15:02;;;;;;;5.37;3.87;;;15.20;99.90;;;;;;5039672;28;20214;-44
2022/05/24 06:17:29;;;;;;;5.63;4.50;;;15.30;99.90;;;;;;5046616;28;20217;-43
2022/05/24 06:19:59;;;;;;;5.67;3.87;;;15.30;99.90;;;;;;5043279;28;20205;-44
2022/05/24 06:22:26;;;;;;;3.80;3.33;;;15.40;99.90;;;;;;5041416;28;20217;-45
2022/05/24 06:24:54;;;;;;;4.53;3.63;;;15.40;99.90;;;;;;5050371;28;20198;-42
2022/05/24 06:27:22;;;;;;;6.40;3.63;;;15.50;99.90;;;;;;5047470;28;20246;-43
2022/05/24 06:29:48;;;;;;;4.00;3.33;;;15.50;99.90;;;;;;5042725;28;20195;-43
2022/05/24 06:32:15;;;;;;;3.73;3.43;;;15.60;99.90;;;;;;5050544;28;20194;-44
2022/05/24 06:34:42;;;;;;;5.00;3.90;;;15.60;99.90;;;;;;5049337;28;20191;-44
2022/05/24 06:37:09;;;;;;;6.90;4.30;;;15.60;99.90;;;;;;5044265;28;20336;-43
2022/05/24 06:39:36;;;;;;;3.67;3.20;;;15.60;99.90;;;;;;5051594;28;20204;-43
2022/05/24 06:42:05;;;;;;;6.40;3.50;;;15.70;99.90;;;;;;5041098;28;20213;-42
2022/05/24 06:44:34;;;;;;;4.43;3.87;;;15.80;99.90;;;;;;5049262;28;20294;-42
2022/05/24 06:47:00;;;;;;;4.63;4.23;;;15.80;99.90;;;;;;5045739;28;20223;-43
2022/05/24 06:49:27;;;;;;;5.87;4.10;;;15.70;99.90;;;;;;5046482;28;20209;-43
2022/05/24 06:51:54;;;;;;;4.70;4.20;;;15.60;99.90;;;;;;5034035;28;20710;-44
2022/05/24 06:54:21;;;;;;;5.87;3.90;;;15.60;99.90;;;;;;5052514;28;20211;-43
2022/05/24 06:56:48;;;;;;;5.20;4.70;;;15.70;99.90;;;;;;5046092;28;20195;-43
2022/05/24 07:04:46;;;;;;;5.27;4.73;;;15.70;99.90;;;;;;5044797;28;20222;-40
2022/05/24 07:07:13;;;;;;;5.87;4.37;;;15.80;99.90;;;;;;5041220;28;20221;-39
2022/05/24 07:09:40;;;;;;;6.23;5.50;;;15.80;99.90;;;;;;5047877;28;20660;-43
2022/05/24 07:12:08;;;;;;;7.30;5.83;;;15.80;99.90;;;;;;5045595;28;20187;-41
2022/05/24 07:14:37;;;;;;;5.53;5.13;;;15.70;99.90;;;;;;5050927;28;20252;-39
2022/05/24 07:17:04;;;;;;;5.33;4.80;;;15.70;99.90;;;;;;5047926;28;20222;-40
2022/05/24 07:19:32;;;;;;;6.60;5.57;;;15.70;99.90;;;;;;5048906;28;20227;-41
2022/05/24 07:21:58;;;;;;;8.43;6.37;;;15.70;99.90;;;;;;5041802;28;20206;-42
2022/05/24 07:24:25;;;;;;;7.23;6.23;;;15.80;99.90;;;;;;5048956;28;20211;-40
2022/05/24 07:26:53;;;;;;;7.63;6.33;;;15.90;99.90;;;;;;5051555;28;20215;-44
2022/05/24 07:29:19;;;;;;;7.67;6.83;;;15.90;99.90;;;;;;5050192;28;20382;-43
2022/05/24 07:31:48;;;;;;;8.70;7.57;;;16.10;99.90;;;;;;5048493;28;20234;-41
2022/05/24 07:34:17;;;;;;;7.57;6.83;;;16.30;99.90;;;;;;5045924;28;20214;-45
2022/05/24 07:36:45;;;;;;;9.70;8.70;;;16.30;99.90;;;;;;5053727;28;20207;-41
2022/05/24 07:39:11;;;;;;;8.27;7.47;;;16.40;99.90;;;;;;5041223;28;20219;-40
2022/05/24 07:47:09;;;;;;;9.23;8.50;;;16.40;99.90;;;;;;5035965;28;20997;-45
2022/05/24 07:49:37;;;;;;;10.17;9.17;;;16.30;99.90;;;;;;5039133;28;20332;-42
2022/05/24 07:52:05;;;;;;;9.77;8.87;;;16.40;99.90;;;;;;5040552;28;20194;-41
2022/05/24 07:54:33;;;;;;;9.93;8.70;;;16.50;99.90;;;;;;5035312;28;20276;-41
2022/05/24 07:56:59;;;;;;;10.90;9.90;;;16.60;99.90;;;;;;5043283;28;20238;-46
2022/05/24 07:59:26;;;;;;;9.50;8.53;;;16.60;99.90;;;;;;5049805;28;20582;-42
2022/05/24 08:01:53;;;;;;;10.10;9.10;;;16.70;99.90;;;;;;5060575;28;20199;-40
2022/05/24 08:04:22;;;;;;;9.33;8.37;;;16.70;99.90;;;;;;5044178;28;20214;-42
2022/05/24 08:06:49;;;;;;;10.13;9.23;;;16.70;99.90;;;;;;5048372;28;20222;-43
2022/05/24 08:09:15;;;;;;;9.63;8.73;;;16.70;99.90;;;;;;5053128;28;20199;-43
2022/05/24 08:11:42;;;;;;;11.23;10.23;;;16.70;99.90;;;;;;5041159;28;20206;-42
2022/05/24 08:14:09;;;;;;;10.67;9.77;;;16.70;99.90;;;;;;5049906;28;20197;-44
2022/05/24 08:16:35;;;;;;;9.93;8.83;;;16.80;99.90;;;;;;5056632;28;20720;-43
2022/05/24 08:19:04;;;;;;;10.33;9.27;;;16.90;99.90;;;;;;5034472;28;20276;-41
2022/05/24 08:21:33;;;;;;;18.23;10.67;;;17.00;99.90;;;;;;5056302;28;20233;-44
2022/05/24 08:23:59;;;;;;;11.57;10.37;;;17.10;99.90;;;;;;5051584;28;20592;-43
2022/05/24 08:26:26;;;;;;;11.80;10.60;;;17.00;99.90;;;;;;5046430;28;20218;-43
2022/05/24 08:28:54;;;;;;;12.60;10.53;;;17.00;99.90;;;;;;5048861;28;20214;-42
2022/05/24 08:31:21;;;;;;;12.63;10.77;;;17.10;99.90;;;;;;5047477;28;20199;-41
2022/05/24 08:33:49;;;;;;;11.83;9.47;;;17.20;99.90;;;;;;5050077;28;20658;-42
2022/05/24 08:36:16;;;;;;;10.90;9.87;;;17.30;99.90;;;;;;5044589;28;20217;-44
2022/05/24 08:38:44;;;;;;;9.30;8.40;;;17.50;99.90;;;;;;5056015;28;20707;-43
2022/05/24 08:41:16;;;;;;;10.93;8.60;;;17.60;99.90;;;;;;5041217;28;20214;-41
2022/05/24 08:49:43;;;;;;;8.10;6.60;;;17.50;99.90;;;;;;5045754;28;20737;-41
2022/05/24 08:52:10;;;;;;;8.10;6.90;;;17.60;99.90;;;;;;5044324;28;20191;-43
2022/05/24 08:54:43;;;;;;;7.17;6.07;;;17.70;99.90;;;;;;5049967;28;20206;-41
2022/05/24 08:57:12;;;;;;;8.50;6.33;;;17.90;99.90;;;;;;5043368;28;20222;-44
2022/05/24 08:59:45;;;;;;;7.77;6.57;;;17.90;99.90;;;;;;5045001;28;20272;-43
2022/05/24 09:02:12;;;;;;;8.17;6.50;;;17.90;99.90;;;;;;5049714;28;20196;-41
2022/05/24 09:04:38;;;;;;;8.50;7.57;;;18.00;99.90;;;;;;5046023;28;20211;-41
2022/05/24 09:07:14;;;;;;;8.43;7.27;;;17.90;99.90;;;;;;5040011;28;20796;-44
2022/05/24 09:09:55;;;;;;;9.23;8.00;;;17.90;99.90;;;;;;5048992;28;20194;-43
2022/05/24 09:12:37;;;;;;;8.23;7.40;;;17.90;99.90;;;;;;5037150;28;20211;-42
2022/05/24 09:15:15;;;;;;;8.50;7.80;;;17.90;99.90;;;;;;5046630;28;20967;-42
2022/05/24 09:17:52;;;;;;;10.87;8.43;;;18.00;99.90;;;;;;5049630;28;20221;-42
2022/05/24 09:20:33;;;;;;;9.27;8.37;;;18.00;99.90;;;;;;5051370;28;20935;-41
2022/05/24 09:23:05;;;;;;;10.47;8.50;;;18.10;99.90;;;;;;5038041;28;20206;-44
2022/05/24 09:25:33;;;;;;;9.43;7.60;;;18.20;99.90;;;;;;5053649;28;20720;-41
2022/05/24 09:28:00;;;;;;;12.47;8.33;;;18.30;99.90;;;;;;5036321;28;20226;-45
2022/05/24 09:30:38;;;;;;;9.07;8.17;;;18.50;99.90;;;;;;5049241;28;20265;-41
2022/05/24 09:33:23;;;;;;;9.17;8.37;;;18.40;99.90;;;;;;5045104;28;20183;-43
2022/05/24 09:35:59;;;;;;;11.50;8.17;;;18.40;99.90;;;;;;5038742;28;20282;-41
2022/05/24 09:38:33;;;;;;;8.73;7.80;;;18.40;99.90;;;;;;5055892;28;20226;-44
2022/05/24 09:41:14;;;;;;;8.73;7.47;;;18.40;99.90;;;;;;5050043;28;20734;-44
2022/05/24 09:43:41;;;;;;;10.00;8.20;;;18.40;99.90;;;;;;5042320;28;20653;-41
2022/05/24 09:46:13;;;;;;;8.03;7.30;;;18.20;99.90;;;;;;5042736;28;20222;-44
2022/05/24 09:48:54;;;;;;;9.97;7.87;;;18.10;99.90;;;;;;5044370;28;20294;-46
2022/05/24 09:51:26;;;;;;;8.53;7.20;;;18.00;99.90;;;;;;5050145;28;20206;-44
2022/05/24 09:53:55;;;;;;;9.00;8.20;;;17.90;99.90;;;;;;5040394;28;20289;-45
2022/05/24 09:56:25;;;;;;;10.50;7.93;;;17.70;99.90;;;;;;5055025;28;20211;-41
2022/05/24 09:58:56;;;;;;;9.60;8.60;;;17.60;99.90;;;;;;5045170;28;20218;-42
2022/05/24 10:01:36;;;;;;;11.17;9.97;;;17.50;99.90;;;;;;5049561;28;20211;-44
2022/05/24 10:04:25;;;;;;;9.90;8.90;;;17.40;99.90;;;;;;5051878;28;20787;-44
2022/05/24 10:06:56;;;;;;;10.40;9.40;;;17.40;99.90;;;;;;5046712;28;20211;-42
2022/05/24 10:09:38;;;;;;;11.77;10.67;;;17.30;99.90;;;;;;5055460;28;20903;-42
2022/05/24 10:12:15;;;;;;;12.77;10.53;;;17.30;99.90;;;;;;5043735;28;20210;-43
2022/05/24 10:14:49;;;;;;;15.67;10.73;;;17.20;99.90;;;;;;5036013;28;20206;-43
2022/05/24 10:17:24;;;;;;;9.53;8.50;;;17.10;99.90;;;;;;5049818;28;20226;-42
2022/05/24 10:20:00;;;;;;;11.77;7.80;;;17.00;99.90;;;;;;5047468;28;20222;-43
2022/05/24 10:22:37;;;;;;;10.50;8.37;;;16.90;99.90;;;;;;5054081;28;20285;-46
2022/05/24 10:25:13;;;;;;;8.10;7.30;;;16.80;99.90;;;;;;5038545;28;20265;-43
2022/05/24 10:27:55;;;;;;;9.23;8.27;;;16.70;99.90;;;;;;5052606;28;20210;-48
2022/05/24 10:30:27;;;;;;;11.30;9.63;;;16.60;99.90;;;;;;5034769;28;20683;-46
2022/05/24 10:39:04;;;;;;;11.43;9.57;;;16.40;99.90;;;;;;5032162;28;20234;-41
2022/05/24 10:41:39;;;;;;;16.23;10.77;;;16.40;99.90;;;;;;5049822;28;20222;-42
2022/05/24 10:44:13;;;;;;;12.60;10.67;;;16.40;99.90;;;;;;5051258;28;20231;-44
2022/05/24 10:46:44;;;;;;;12.90;10.60;;;16.40;99.90;;;;;;5040024;28;20336;-43
2022/05/24 10:49:18;;;;;;;11.43;9.47;;;16.40;99.90;;;;;;5040218;28;20921;-45
2022/05/24 10:51:48;;;;;;;13.13;11.00;;;16.40;99.90;;;;;;5049766;28;20207;-47
2022/05/24 10:54:26;;;;;;;18.63;11.10;;;16.50;99.90;;;;;;5034372;28;20748;-43
2022/05/24 10:56:56;;;;;;;12.83;10.40;;;16.50;99.90;;;;;;5046809;28;20259;-42
2022/05/24 10:59:39;;;;;;;11.73;10.23;;;16.40;99.90;;;;;;5045963;28;20211;-48
2022/05/24 11:02:15;;;;;;;12.97;10.23;;;16.40;99.90;;;;;;5032213;28;20217;-42
2022/05/24 11:04:49;;;;;;;12.97;10.80;;;16.30;99.90;;;;;;5033110;28;20984;-42
2022/05/24 11:07:18;;;;;;;14.80;11.70;;;16.30;99.90;;;;;;5044329;28;20315;-45
2022/05/24 11:09:55;;;;;;;14.37;11.60;;;16.30;99.90;;;;;;5038877;28;20209;-44
2022/05/24 11:12:27;;;;;;;15.47;12.23;;;16.30;99.90;;;;;;5046068;28;20199;-44
2022/05/24 11:15:00;;;;;;;16.40;12.87;;;16.30;99.90;;;;;;5045565;28;20690;-43
2022/05/24 11:17:27;;;;;;;16.63;13.17;;;16.30;99.90;;;;;;5036326;28;21114;-43
2022/05/24 11:19:56;;;;;;;12.33;11.10;;;16.30;99.90;;;;;;5049727;28;20219;-45
2022/05/24 11:22:29;;;;;;;17.60;13.33;;;16.40;99.90;;;;;;5047165;28;20286;-44
2022/05/24 11:25:03;;;;;;;13.33;11.93;;;16.50;99.90;;;;;;5043001;28;20203;-45
2022/05/24 11:27:33;;;;;;;16.17;13.90;;;16.30;99.90;;;;;;5045042;28;20206;-44
2022/05/24 11:30:10;;;;;;;12.33;9.77;;;16.10;99.90;;;;;;5050582;28;20191;-46
2022/05/24 11:32:41;;;;;;;10.90;8.97;;;15.80;99.90;;;;;;5034794;28;20212;-46
2022/05/24 11:35:11;;;;;;;12.93;8.80;;;15.60;99.90;;;;;;5051162;28;20234;-43
2022/05/24 11:37:41;;;;;;;10.60;8.43;;;15.50;99.90;;;;;;5044828;28;20233;-42
2022/05/24 11:40:36;;;;;;;10.00;6.73;;;15.50;99.90;;;;;;5057714;28;20790;-42
2022/05/24 11:43:05;;;;;;;9.53;7.90;;;15.60;99.90;;;;;;5040751;28;20203;-44
2022/05/24 11:46:03;;;;;;;10.27;7.73;;;15.60;99.90;;;;;;5039676;28;20196;-43
2022/05/24 11:48:44;;;;;;;7.60;6.37;;;15.60;99.90;;;;;;5036013;28;20252;-43
2022/05/24 11:51:37;;;;;;;9.73;6.80;;;15.70;99.90;;;;;;5046328;28;20203;-44
2022/05/24 11:54:08;;;;;;;8.50;6.60;;;15.70;99.90;;;;;;5049160;28;20219;-42
2022/05/24 11:56:38;;;;;;;6.67;5.43;;;15.70;99.90;;;;;;5039918;28;20210;-43
2022/05/24 11:59:06;;;;;;;6.07;5.47;;;15.70;99.90;;;;;;5055551;28;20203;-43
2022/05/24 12:01:42;;;;;;;11.27;7.03;;;15.70;99.90;;;;;;5048513;28;20244;-42
2022/05/24 12:10:03;;;;;;;8.37;7.17;;;16.00;99.90;;;;;;5043480;28;20233;-44
2022/05/24 12:12:34;;;;;;;9.00;7.90;;;16.10;99.90;;;;;;5044410;28;21598;-42
2022/05/24 12:15:15;;;;;;;7.93;7.13;;;16.30;99.90;;;;;;5048307;28;20220;-44
2022/05/24 12:17:44;;;;;;;9.70;8.57;;;16.30;99.90;;;;;;5051177;28;20229;-44
2022/05/24 12:20:48;;;;;;;9.47;8.43;;;16.30;99.90;;;;;;5038774;28;20238;-45
2022/05/24 12:23:20;;;;;;;8.27;7.10;;;16.40;99.90;;;;;;5047034;28;20930;-41
2022/05/24 12:25:52;;;;;;;11.10;7.70;;;16.60;99.90;;;;;;5043766;28;20195;-47
2022/05/24 12:28:19;;;;;;;8.37;7.23;;;16.70;99.90;;;;;;5046176;28;20230;-43
2022/05/24 12:30:48;;;;;;;9.53;7.40;;;16.80;99.90;;;;;;5050427;28;20195;-43
2022/05/24 12:33:35;;;;;;;8.07;7.27;;;17.00;99.90;;;;;;5039881;28;20214;-44
2022/05/24 12:36:19;;;;;;;8.07;7.27;;;17.10;99.90;;;;;;5047153;28;20225;-46
2022/05/24 12:38:51;;;;;;;10.60;8.57;;;17.20;99.90;;;;;;5047912;28;20230;-42
2022/05/24 12:41:25;;;;;;;10.43;7.90;;;17.40;99.90;;;;;;5045350;28;20226;-42
2022/05/24 12:43:56;;;;;;;8.87;7.57;;;17.60;99.90;;;;;;5037001;28;20199;-47
2022/05/24 12:46:27;;;;;;;8.00;7.17;;;17.70;99.90;;;;;;5050870;28;20207;-45
2022/05/24 12:48:59;;;;;;;7.47;6.53;;;18.00;99.90;;;;;;5044356;28;20226;-49
2022/05/24 12:51:26;;;;;;;6.83;5.63;;;18.20;99.90;;;;;;5053130;28;20690;-43
2022/05/24 12:53:55;;;;;;;11.17;5.93;;;18.10;99.90;;;;;;5041614;28;20201;-42
2022/05/24 12:56:24;;;;;;;6.93;5.60;;;17.90;99.90;;;;;;5053591;28;20207;-41
2022/05/24 12:58:54;;;;;;;7.27;6.53;;;17.90;99.90;;;;;;5047408;28;20223;-40
2022/05/24 13:01:24;;;;;;;5.63;4.80;;;18.10;99.90;;;;;;5051048;28;20246;-41
2022/05/24 13:04:08;;;;;;;6.90;5.83;;;18.50;99.90;;;;;;5042681;28;20834;-41
2022/05/24 13:06:48;;;;;;;5.53;4.97;;;18.90;99.90;;;;;;5049546;28;20226;-41
2022/05/24 13:09:21;;;;;;;6.67;5.10;;;19.30;99.90;;;;;;5044195;28;20291;-41
2022/05/24 13:11:50;;;;;;;6.53;4.87;;;19.50;99.90;;;;;;5051918;28;20202;-42
2022/05/24 13:14:38;;;;;;;4.67;4.27;;;19.90;99.90;;;;;;5043194;28;20203;-47
2022/05/24 13:17:07;;;;;;;5.60;4.37;;;19.90;99.90;;;;;;5041831;28;20230;-44
2022/05/24 13:19:59;;;;;;;6.37;5.30;;;19.80;99.90;;;;;;5045046;28;20246;-44
2022/05/24 13:22:40;;;;;;;7.07;5.80;;;19.50;99.90;;;;;;5044115;28;20226;-41
2022/05/24 13:25:15;;;;;;;7.30;4.23;;;19.20;99.90;;;;;;5053265;28;20233;-43
2022/05/24 13:27:56;;;;;;;5.70;4.70;;;19.10;99.90;;;;;;5041989;28;20693;-46
2022/05/24 13:33:35;;;;;;;5.93;4.77;;;18.90;99.90;;;;;;5048911;28;20614;-42
2022/05/24 13:36:20;;;;;;;5.10;4.60;;;18.90;99.90;;;;;;5048150;28;20216;-44
2022/05/24 13:38:50;;;;;;;4.57;4.20;;;19.10;99.90;;;;;;5037418;28;25349;-46
2022/05/24 13:41:31;;;;;;;4.70;3.63;;;19.20;99.90;;;;;;5044655;28;20237;-46
2022/05/24 13:44:11;;;;;;;6.40;4.10;;;19.40;99.90;;;;;;5052214;28;20195;-45
2022/05/24 13:46:51;;;;;;;7.10;4.60;;;19.40;99.90;;;;;;5044370;28;20293;-45